createdAt,value
2023-05-03T00:02:10.411Z,8.53
2023-05-03T00:05:01.043Z,8.44
2023-05-03T00:07:49.331Z,8.39
2023-05-03T00:10:37.198Z,8.33
2023-05-03T00:13:25.084Z,8.27
2023-05-03T00:16:13.068Z,8.22
2023-05-03T00:19:01.031Z,8.19
2023-05-03T00:21:50.337Z,8.13
2023-05-03T00:24:38.282Z,8.08
2023-05-03T00:27:26.113Z,8.03
2023-05-03T00:30:14.791Z,7.99
2023-05-03T00:33:02.807Z,7.90
2023-05-03T00:35:50.803Z,7.85
2023-05-03T00:38:41.095Z,7.83
2023-05-03T00:41:29.172Z,7.79
2023-05-03T00:44:17.217Z,7.78
2023-05-03T00:47:06.956Z,7.74
2023-05-03T00:49:54.723Z,7.72
2023-05-03T00:52:43.654Z,7.69
2023-05-03T00:55:34.218Z,7.61
2023-05-03T00:58:22.527Z,7.56
2023-05-03T01:01:11.042Z,7.51
2023-05-03T01:03:59.324Z,7.44
2023-05-03T01:06:53.618Z,7.37
2023-05-03T01:09:57.257Z,7.32
2023-05-03T01:12:56.323Z,7.31
2023-05-03T01:15:51.786Z,7.31
2023-05-03T01:18:42.188Z,7.25
2023-05-03T01:21:33.837Z,7.22
2023-05-03T01:24:26.125Z,7.18
2023-05-03T01:27:19.262Z,7.16
2023-05-03T01:30:11.720Z,7.15
2023-05-03T01:33:06.898Z,7.16
2023-05-03T01:36:00.490Z,7.09
2023-05-03T01:38:49.848Z,7.06
2023-05-03T01:41:39.412Z,7.02
2023-05-03T01:44:29.196Z,6.99
2023-05-03T01:47:17.648Z,6.96
2023-05-03T01:50:06.088Z,6.94
2023-05-03T01:52:54.021Z,6.91
2023-05-03T01:55:42.086Z,6.91
2023-05-03T01:58:30.069Z,6.88
2023-05-03T02:01:19.273Z,6.84
2023-05-03T02:04:07.083Z,6.79
2023-05-03T02:06:55.298Z,6.74
2023-05-03T02:09:45.652Z,6.71
2023-05-03T02:12:33.721Z,6.62
2023-05-03T02:15:21.608Z,6.55
2023-05-03T02:18:11.078Z,6.51
2023-05-03T02:20:59.076Z,6.50
2023-05-03T02:23:47.004Z,6.49
2023-05-03T02:26:35.020Z,6.42
2023-05-03T02:29:23.138Z,6.38
2023-05-03T02:32:11.233Z,6.35
2023-05-03T02:35:00.443Z,6.29
2023-05-03T02:37:48.237Z,6.26
2023-05-03T02:40:36.387Z,6.22
2023-05-03T02:43:24.981Z,6.21
2023-05-03T02:46:12.862Z,6.16
2023-05-03T02:49:00.934Z,6.15
2023-05-03T02:51:50.106Z,6.11
2023-05-03T02:54:37.938Z,6.08
2023-05-03T02:57:25.882Z,6.00
2023-05-03T03:00:15.531Z,5.93
2023-05-03T03:03:03.563Z,5.88
2023-05-03T03:05:51.508Z,5.86
2023-05-03T03:08:40.971Z,5.83
2023-05-03T03:11:28.892Z,5.78
2023-05-03T03:14:16.745Z,5.78
2023-05-03T03:17:08.819Z,5.78
2023-05-03T03:19:58.225Z,5.70
2023-05-03T03:22:46.016Z,5.63
2023-05-03T03:25:35.573Z,5.59
2023-05-03T03:28:23.584Z,5.53
2023-05-03T03:31:11.679Z,5.49
2023-05-03T03:33:59.231Z,5.46
2023-05-03T03:36:47.128Z,5.42
2023-05-03T03:39:35.121Z,5.36
2023-05-03T03:42:25.766Z,5.32
2023-05-03T03:45:13.738Z,5.30
2023-05-03T03:48:01.369Z,5.25
2023-05-03T03:50:49.683Z,5.22
2023-05-03T03:53:37.888Z,5.20
2023-05-03T03:56:26.298Z,5.19
2023-05-03T03:59:15.894Z,5.16
2023-05-03T04:02:03.986Z,5.17
2023-05-03T04:04:52.057Z,5.17
2023-05-03T04:07:39.923Z,5.14
2023-05-03T04:10:28.040Z,5.08
2023-05-03T04:13:15.980Z,5.05
2023-05-03T04:16:05.804Z,5.07
2023-05-03T04:18:53.916Z,5.02
2023-05-03T04:21:42.137Z,4.99
2023-05-03T04:24:30.525Z,4.99
2023-05-03T04:27:18.748Z,5.02
2023-05-03T04:30:08.779Z,5.03
2023-05-03T04:32:58.381Z,5.06
2023-05-03T04:35:46.259Z,5.11
2023-05-03T04:38:34.354Z,5.13
2023-05-03T04:41:22.248Z,5.18
2023-05-03T04:44:10.377Z,5.25
2023-05-03T04:46:58.274Z,5.28
2023-05-03T04:49:47.892Z,5.37
2023-05-03T04:52:35.819Z,5.45
2023-05-03T04:55:23.586Z,5.53
2023-05-03T04:58:11.621Z,5.60
2023-05-03T05:01:00.403Z,5.65
2023-05-03T05:03:48.837Z,5.70
2023-05-03T05:06:38.665Z,5.85
2023-05-03T05:09:28.553Z,5.87
2023-05-03T05:12:16.697Z,5.94
2023-05-03T05:15:05.357Z,6.06
2023-05-03T05:17:53.282Z,6.12
2023-05-03T05:20:41.143Z,6.21
2023-05-03T05:23:30.225Z,6.30
2023-05-03T05:26:18.161Z,6.37
2023-05-03T05:29:06.335Z,6.45
2023-05-03T05:31:54.441Z,6.58
2023-05-03T05:34:45.121Z,6.65
2023-05-03T05:37:33.640Z,6.77
2023-05-03T05:40:22.941Z,6.84
2023-05-03T05:43:11.090Z,6.93
2023-05-03T05:45:59.216Z,7.06
2023-05-03T05:48:47.141Z,7.15
2023-05-03T05:51:35.426Z,7.24
2023-05-03T05:54:23.100Z,7.34
2023-05-03T05:57:12.897Z,7.43
2023-05-03T06:00:01.530Z,7.47
2023-05-03T06:02:50.020Z,7.57
2023-05-03T06:05:38.042Z,7.62
2023-05-03T06:08:25.854Z,7.68
2023-05-03T06:11:15.107Z,7.75
2023-05-03T06:14:04.614Z,7.82
2023-05-03T06:16:53.862Z,7.90
2023-05-03T06:19:43.138Z,7.96
2023-05-03T06:22:32.988Z,8.01
2023-05-03T06:25:21.249Z,8.07
2023-05-03T06:28:09.212Z,8.15
2023-05-03T06:30:58.469Z,8.22
2023-05-03T06:33:46.614Z,8.28
2023-05-03T06:36:37.835Z,8.39
2023-05-03T06:39:26.140Z,8.48
2023-05-03T06:42:13.742Z,8.59
2023-05-03T06:45:01.704Z,8.66
2023-05-03T06:47:51.124Z,8.78
2023-05-03T06:50:39.166Z,8.87
2023-05-03T06:53:27.164Z,8.99
2023-05-03T06:56:15.075Z,9.07
2023-05-03T06:59:03.579Z,9.18
2023-05-03T07:01:51.858Z,9.28
2023-05-03T07:04:40.929Z,9.41
2023-05-03T07:07:28.820Z,9.51
2023-05-03T07:10:17.011Z,9.66
2023-05-03T07:13:04.919Z,9.77
2023-05-03T07:15:52.997Z,9.89
2023-05-03T07:18:41.640Z,10.01
2023-05-03T07:21:30.572Z,10.13
2023-05-03T07:24:19.177Z,10.28
2023-05-03T07:27:07.633Z,10.40
2023-05-03T07:29:55.368Z,10.54
2023-05-03T07:32:43.424Z,10.69
2023-05-03T07:35:32.994Z,10.88
2023-05-03T07:38:22.337Z,11.08
2023-05-03T07:41:10.580Z,11.29
2023-05-03T07:43:58.459Z,11.56
2023-05-03T07:46:46.083Z,11.91
2023-05-03T07:49:36.276Z,12.22
2023-05-03T07:52:24.289Z,12.62
2023-05-03T07:55:13.475Z,12.92
2023-05-03T07:58:01.424Z,13.35
2023-05-03T08:00:49.538Z,13.84
2023-05-03T08:03:37.853Z,14.37
2023-05-03T08:06:26.046Z,14.61
2023-05-03T08:09:14.184Z,14.99
2023-05-03T08:12:03.734Z,15.45
2023-05-03T08:14:53.175Z,16.10
2023-05-03T08:17:44.938Z,16.61
2023-05-03T08:20:36.828Z,16.98
2023-05-03T08:23:25.713Z,16.43
2023-05-03T08:26:14.627Z,17.36
2023-05-03T08:29:03.813Z,17.91
2023-05-03T08:31:51.895Z,18.63
2023-05-03T08:34:39.701Z,19.03
2023-05-03T08:37:27.849Z,19.56
2023-05-03T08:40:16.697Z,19.83
2023-05-03T08:43:10.491Z,20.11
2023-05-03T08:45:59.667Z,20.52
2023-05-03T08:48:49.281Z,20.90
2023-05-03T08:51:40.211Z,21.04
2023-05-03T08:54:28.291Z,21.19
2023-05-03T08:57:17.777Z,21.49
2023-05-03T09:00:10.720Z,21.67
2023-05-03T09:03:00.925Z,21.95
2023-05-03T09:05:49.136Z,22.02
2023-05-03T09:08:44.644Z,22.40
2023-05-03T09:11:33.721Z,22.66
2023-05-03T09:14:21.760Z,22.94
2023-05-03T09:17:17.285Z,23.20
2023-05-03T09:20:09.022Z,23.56
2023-05-03T09:22:56.837Z,23.70
2023-05-03T09:25:46.416Z,23.98
2023-05-03T09:28:43.595Z,24.14
2023-05-03T09:31:32.854Z,24.19
2023-05-03T09:34:24.589Z,24.40
2023-05-03T09:37:14.660Z,24.40
2023-05-03T09:40:10.208Z,24.48
2023-05-03T09:43:09.783Z,24.84
2023-05-03T09:46:10.694Z,24.94
2023-05-03T09:48:58.651Z,25.22
2023-05-03T09:51:47.137Z,25.39
2023-05-03T09:54:37.923Z,25.47
2023-05-03T09:57:27.286Z,25.69
2023-05-03T10:00:20.614Z,25.88
2023-05-03T10:03:10.752Z,26.16
2023-05-03T10:06:03.714Z,26.04
2023-05-03T10:08:59.532Z,25.91
2023-05-03T10:11:52.738Z,26.11
2023-05-03T10:14:43.625Z,26.26
2023-05-03T10:17:46.378Z,25.94
2023-05-03T10:20:41.558Z,26.27
2023-05-03T10:23:29.518Z,26.66
2023-05-03T10:26:18.109Z,26.90
2023-05-03T10:29:08.276Z,26.97
2023-05-03T10:31:56.440Z,27.12
2023-05-03T10:34:46.454Z,27.17
2023-05-03T10:37:36.122Z,27.24
2023-05-03T10:40:23.885Z,27.18
2023-05-03T10:43:46.121Z,27.19
2023-05-03T10:46:36.709Z,27.45
2023-05-03T10:49:26.365Z,27.60
2023-05-03T10:52:51.355Z,27.64
2023-05-03T10:55:39.341Z,27.71
2023-05-03T10:58:27.669Z,27.75
2023-05-03T11:01:18.046Z,27.92
2023-05-03T11:04:12.280Z,27.66
2023-05-03T11:07:01.490Z,27.78
2023-05-03T11:09:49.243Z,27.96
2023-05-03T11:12:39.761Z,28.08
2023-05-03T11:15:27.900Z,28.38
2023-05-03T11:18:15.639Z,28.57
2023-05-03T11:21:05.536Z,28.72
2023-05-03T11:23:53.566Z,28.86
2023-05-03T11:26:41.867Z,28.88
2023-05-03T11:29:29.658Z,29.01
2023-05-03T11:32:19.268Z,29.04
2023-05-03T11:35:08.398Z,28.94
2023-05-03T11:37:58.126Z,29.13
2023-05-03T11:40:46.377Z,29.04
2023-05-03T11:43:35.014Z,29.21
2023-05-03T11:46:28.774Z,29.44
2023-05-03T11:49:20.349Z,29.68
2023-05-03T11:52:08.933Z,29.81
2023-05-03T11:54:58.213Z,29.75
2023-05-03T11:57:46.842Z,29.84
2023-05-03T12:00:34.907Z,29.87
2023-05-03T12:03:27.667Z,29.75
2023-05-03T12:06:19.317Z,29.80
2023-05-03T12:09:18.401Z,29.87
2023-05-03T12:12:10.552Z,29.91
2023-05-03T12:15:03.682Z,29.79
2023-05-03T12:18:00.251Z,29.60
2023-05-03T12:21:30.077Z,29.84
2023-05-03T12:24:06.495Z,29.98
2023-05-03T12:26:57.166Z,30.17
2023-05-03T12:29:47.652Z,30.04
2023-05-03T12:32:38.903Z,29.85
2023-05-03T12:35:28.591Z,29.85
2023-05-03T12:38:17.859Z,29.81
2023-05-03T12:41:08.953Z,29.51
2023-05-03T12:44:00.059Z,29.46
2023-05-03T12:49:39.655Z,29.39
2023-05-03T12:55:19.195Z,29.33
2023-05-03T12:58:40.073Z,29.43
2023-05-03T13:02:05.238Z,29.69
2023-05-03T13:04:54.935Z,29.83
2023-05-03T13:07:34.931Z,29.92
2023-05-03T13:10:29.787Z,30.02
2023-05-03T13:13:18.525Z,30.09
2023-05-03T13:16:07.922Z,30.17
2023-05-03T13:18:56.611Z,30.24
2023-05-03T13:21:48.053Z,30.21
2023-05-03T13:24:35.681Z,30.26
2023-05-03T13:27:23.717Z,30.30
2023-05-03T13:30:15.198Z,30.31
2023-05-03T13:33:03.285Z,30.45
2023-05-03T13:35:51.064Z,30.40
2023-05-03T13:38:41.938Z,30.47
2023-05-03T13:41:29.737Z,30.51
2023-05-03T13:44:17.678Z,30.42
2023-05-03T13:47:06.167Z,30.30
2023-05-03T13:49:57.393Z,30.36
2023-05-03T13:52:45.267Z,30.54
2023-05-03T13:55:34.538Z,30.66
2023-05-03T13:58:22.249Z,30.61
2023-05-03T14:01:10.847Z,30.49
2023-05-03T14:03:59.129Z,30.41
2023-05-03T14:06:46.911Z,30.38
2023-05-03T14:09:39.294Z,30.24
2023-05-03T14:12:28.504Z,30.38
2023-05-03T14:15:16.953Z,30.47
2023-05-03T14:18:06.013Z,30.19
2023-05-03T14:20:55.058Z,30.00
2023-05-03T14:23:42.635Z,29.91
2023-05-03T14:26:30.534Z,29.98
2023-05-03T14:29:19.942Z,28.95
2023-05-03T14:32:08.296Z,29.62
2023-05-03T14:34:56.915Z,30.01
2023-05-03T14:37:44.937Z,30.30
2023-05-03T14:40:33.184Z,30.35
2023-05-03T14:43:21.355Z,30.46
2023-05-03T14:46:10.798Z,30.57
2023-05-03T14:48:59.312Z,30.74
2023-05-03T14:51:47.516Z,30.74
2023-05-03T14:54:35.419Z,30.74
2023-05-03T14:57:23.499Z,30.89
2023-05-03T15:00:14.428Z,30.91
2023-05-03T15:03:03.679Z,30.89
2023-05-03T15:05:52.179Z,30.87
2023-05-03T15:08:40.248Z,30.88
2023-05-03T15:11:28.601Z,30.97
2023-05-03T15:14:17.503Z,31.03
2023-05-03T15:17:05.573Z,31.06
2023-05-03T15:19:54.794Z,31.13
2023-05-03T15:22:42.735Z,31.19
2023-05-03T15:25:30.600Z,31.37
2023-05-03T15:28:18.555Z,31.48
2023-05-03T15:31:06.746Z,31.45
2023-05-03T15:33:54.695Z,31.49
2023-05-03T15:36:44.072Z,31.52
2023-05-03T15:39:31.793Z,31.59
2023-05-03T15:42:19.751Z,31.59
2023-05-03T15:45:09.780Z,31.61
2023-05-03T15:47:58.116Z,31.57
2023-05-03T15:50:46.239Z,31.55
2023-05-03T15:53:35.503Z,31.60
2023-05-03T15:56:23.211Z,31.62
2023-05-03T15:59:14.818Z,31.69
2023-05-03T16:02:03.855Z,31.69
2023-05-03T16:04:52.045Z,31.72
2023-05-03T16:07:40.177Z,31.73
2023-05-03T16:10:29.582Z,31.63
2023-05-03T16:13:17.435Z,31.58
2023-05-03T16:16:05.794Z,31.62
2023-05-03T16:18:53.816Z,31.67
2023-05-03T16:21:41.645Z,31.63
2023-05-03T16:24:29.568Z,31.60
2023-05-03T16:27:18.908Z,31.57
2023-05-03T16:30:07.974Z,31.51
2023-05-03T16:32:56.146Z,31.43
2023-05-03T16:35:43.891Z,31.34
2023-05-03T16:38:32.142Z,31.25
2023-05-03T16:41:20.064Z,31.10
2023-05-03T16:44:10.327Z,30.95
2023-05-03T16:46:58.412Z,30.89
2023-05-03T16:49:46.264Z,30.76
2023-05-03T16:52:39.380Z,30.49
2023-05-03T16:55:27.256Z,30.30
2023-05-03T16:58:15.553Z,30.03
2023-05-03T17:01:04.845Z,29.63
2023-05-03T17:03:52.737Z,29.59
2023-05-03T17:06:40.465Z,29.43
2023-05-03T17:09:31.378Z,29.19
2023-05-03T17:12:19.505Z,28.71
2023-05-03T17:15:08.834Z,28.32
2023-05-03T17:17:58.543Z,27.95
2023-05-03T17:20:46.527Z,27.61
2023-05-03T17:23:35.774Z,27.29
2023-05-03T17:26:23.951Z,26.95
2023-05-03T17:29:11.985Z,26.65
2023-05-03T17:32:00.074Z,26.27
2023-05-03T17:34:49.184Z,25.99
2023-05-03T17:37:37.619Z,25.67
2023-05-03T17:40:25.694Z,25.32
2023-05-03T17:43:14.091Z,25.04
2023-05-03T17:46:10.698Z,24.72
2023-05-03T17:48:58.626Z,24.38
2023-05-03T17:51:48.157Z,24.11
2023-05-03T17:54:36.420Z,23.83
2023-05-03T17:57:24.011Z,23.56
2023-05-03T18:00:15.433Z,23.29
2023-05-03T18:03:07.928Z,23.01
2023-05-03T18:05:56.549Z,22.74
2023-05-03T18:08:45.620Z,22.48
2023-05-03T18:11:33.539Z,22.22
2023-05-03T18:14:21.222Z,21.97
2023-05-03T18:17:09.211Z,21.71
2023-05-03T18:19:57.143Z,21.46
2023-05-03T18:22:45.308Z,21.21
2023-05-03T18:25:34.495Z,20.95
2023-05-03T18:28:23.860Z,20.70
2023-05-03T18:31:12.716Z,20.43
2023-05-03T18:34:00.946Z,20.19
2023-05-03T18:36:49.087Z,19.97
2023-05-03T18:39:36.883Z,19.73
2023-05-03T18:42:26.525Z,19.49
2023-05-03T18:45:17.371Z,19.27
2023-05-03T18:48:05.626Z,19.06
2023-05-03T18:50:53.479Z,18.85
2023-05-03T18:53:41.360Z,18.63
2023-05-03T18:56:31.274Z,18.41
2023-05-03T18:59:20.687Z,18.21
2023-05-03T19:02:10.693Z,18.01
2023-05-03T19:05:00.100Z,17.80
2023-05-03T19:07:48.880Z,17.61
2023-05-03T19:10:36.912Z,17.43
2023-05-03T19:13:25.028Z,17.25
2023-05-03T19:16:15.524Z,17.07
2023-05-03T19:19:03.877Z,16.90
2023-05-03T19:21:51.751Z,16.73
2023-05-03T19:24:39.929Z,16.55
2023-05-03T19:27:28.554Z,16.40
2023-05-03T19:30:17.237Z,16.23
2023-05-03T19:33:06.916Z,16.07
2023-05-03T19:35:57.485Z,15.91
2023-05-03T19:38:45.587Z,15.71
2023-05-03T19:41:33.873Z,15.57
2023-05-03T19:44:21.859Z,15.42
2023-05-03T19:47:21.450Z,15.26
2023-05-03T19:50:12.175Z,15.10
2023-05-03T19:53:00.119Z,14.95
2023-05-03T19:55:56.752Z,14.81
2023-05-03T19:58:46.446Z,14.66
2023-05-03T20:01:34.365Z,14.53
2023-05-03T20:04:23.347Z,14.40
2023-05-03T20:07:12.957Z,14.27
2023-05-03T20:10:00.703Z,14.13
2023-05-03T20:12:48.743Z,14.00
2023-05-03T20:15:37.726Z,13.88
2023-05-03T20:18:28.744Z,13.76
2023-05-03T20:21:19.047Z,13.66
2023-05-03T20:24:10.944Z,13.54
2023-05-03T20:26:58.820Z,13.43
2023-05-03T20:29:46.800Z,13.34
2023-05-03T20:32:36.416Z,13.21
2023-05-03T20:35:26.597Z,13.11
2023-05-03T20:38:14.602Z,12.99
2023-05-03T20:41:04.072Z,12.88
2023-05-03T20:43:53.981Z,12.78
2023-05-03T20:46:42.048Z,12.70
2023-05-03T20:49:30.068Z,12.60
2023-05-03T20:52:18.230Z,12.49
2023-05-03T20:55:07.291Z,12.43
2023-05-03T20:57:57.206Z,12.34
2023-05-03T21:00:45.570Z,12.26
2023-05-03T21:03:33.875Z,12.18
2023-05-03T21:06:21.960Z,12.04
2023-05-03T21:09:10.421Z,11.96
2023-05-03T21:11:59.380Z,11.90
2023-05-03T21:14:49.063Z,11.82
2023-05-03T21:17:36.816Z,11.76
2023-05-03T21:20:24.659Z,11.70
2023-05-03T21:23:13.420Z,11.63
2023-05-03T21:26:01.272Z,11.57
2023-05-03T21:28:49.185Z,11.48
2023-05-03T21:31:40.060Z,11.42
2023-05-03T21:34:28.164Z,11.35
2023-05-03T21:37:15.798Z,11.27
2023-05-03T21:40:03.908Z,11.18
2023-05-03T21:42:52.696Z,11.10
2023-05-03T21:45:43.897Z,11.05
2023-05-03T21:48:33.569Z,10.98
2023-05-03T21:51:21.558Z,10.91
2023-05-03T21:54:09.757Z,10.83
2023-05-03T21:56:57.857Z,10.75
2023-05-03T21:59:46.470Z,10.68
2023-05-03T22:02:34.541Z,10.61
2023-05-03T22:05:24.335Z,10.54
2023-05-03T22:08:14.286Z,10.48
2023-05-03T22:11:05.084Z,10.40
2023-05-03T22:14:06.796Z,10.36
2023-05-03T22:16:56.559Z,10.29
2023-05-03T22:19:44.520Z,10.24
2023-05-03T22:22:33.889Z,10.18
2023-05-03T22:25:25.327Z,10.13
2023-05-03T22:28:13.280Z,10.05
2023-05-03T22:31:01.294Z,10.00
2023-05-03T22:33:49.437Z,9.92
2023-05-03T22:36:37.631Z,9.86
2023-05-03T22:39:26.765Z,9.78
2023-05-03T22:42:14.601Z,9.73
2023-05-03T22:45:03.359Z,9.66
2023-05-03T22:47:51.414Z,9.59
2023-05-03T22:50:39.413Z,9.54
2023-05-03T22:53:27.461Z,9.48
2023-05-03T22:56:16.825Z,9.42
2023-05-03T22:59:04.920Z,9.33
2023-05-03T23:01:53.083Z,9.28
2023-05-03T23:04:41.403Z,9.20
2023-05-03T23:07:29.438Z,9.14
2023-05-03T23:10:17.672Z,9.07
2023-05-03T23:13:07.267Z,9.03
2023-05-03T23:15:56.378Z,8.99
2023-05-03T23:18:44.311Z,8.90
2023-05-03T23:21:32.420Z,8.83
2023-05-03T23:24:20.240Z,8.78
2023-05-03T23:27:08.855Z,8.75
2023-05-03T23:29:58.548Z,8.67
2023-05-03T23:32:47.819Z,8.61
2023-05-03T23:35:35.996Z,8.57
2023-05-03T23:38:24.346Z,8.53
2023-05-03T23:41:12.319Z,8.48
2023-05-03T23:44:00.490Z,8.38
2023-05-03T23:46:49.823Z,8.31
2023-05-03T23:49:37.777Z,8.30
2023-05-03T23:52:26.399Z,8.31
2023-05-03T23:55:14.444Z,8.26
2023-05-03T23:58:02.724Z,8.18
